Aviation Digital Data Service (ADDS)

Output produced by METARs form (1556 UTC 23 September 2020)
found at http://aviationweather.gov/metar/data/
 
KNEW 231123Z 2312/2412 10012KT P6SM VCSH BKN050 
     FM231500 12013KT P6SM VCSH BKN020 
     FM232200 14014KT P6SM VCTS BKN015CB 
     FM240000 14013G21KT P6SM VCSH BKN015 
     FM240600 15013G21KT P6SM BKN010